Time;durP1;ratioP1;P1;durP2;ratioP2;P2;SDS_P1;SDS_P2;PMS_P1;PMS_P2;Temp;Humidity;BMP_temperature;BMP_pressure;BME280_temperature;BME280_humidity;BME280_pressure;Samples;Min_cycle;Max_cycle;Signal;HPM_P1;HPM_P2
2023/03/25 00:01:32;;;;;;;;;;;10.70;99.90;;;;;;5021918;28;20477;-89
2023/03/25 00:03:59;;;;;;;;;;;10.60;99.90;;;;;;5035718;28;19928;-96
2023/03/25 00:06:26;;;;;;;;;;;10.60;99.90;;;;;;5034436;28;19909;-95
2023/03/25 00:08:52;;;;;;;;;;;10.60;99.90;;;;;;5028941;28;19909;-90
2023/03/25 00:11:18;;;;;;;;;;;10.60;99.90;;;;;;5021311;28;19913;-90
2023/03/25 00:13:47;;;;;;;;;;;10.60;99.90;;;;;;5035435;28;19928;-95
2023/03/25 00:16:13;;;;;;;;;;;10.60;99.90;;;;;;5025920;28;19913;-96
2023/03/25 00:18:46;;;;;;;;;;;10.50;99.90;;;;;;5026905;28;19928;-96
2023/03/25 00:21:15;;;;;;;;;;;10.50;99.90;;;;;;5013438;28;19920;-95
2023/03/25 00:23:40;;;;;;;;;;;10.60;99.90;;;;;;5013860;28;19909;-96
2023/03/25 00:26:07;;;;;;;;;;;10.60;99.90;;;;;;5015219;28;19910;-96
2023/03/25 00:28:40;;;;;;;;;;;10.60;99.90;;;;;;5015667;28;19921;-96
2023/03/25 00:31:08;;;;;;;;;;;10.60;99.90;;;;;;5013329;28;19916;-95
2023/03/25 00:33:34;;;;;;;;;;;10.60;99.90;;;;;;5013802;28;19933;-95
2023/03/25 00:36:00;;;;;;;;;;;10.60;99.90;;;;;;5009263;28;19910;-93
2023/03/25 00:38:32;;;;;;;;;;;10.60;99.90;;;;;;5001701;28;20004;-93
2023/03/25 00:41:07;;;;;;;;;;;10.60;99.90;;;;;;4999552;28;19917;-93
2023/03/25 00:43:33;;;;;;;;;;;10.60;99.90;;;;;;4999582;28;19910;-95
2023/03/25 00:45:59;;;;;;;;;;;10.60;99.90;;;;;;4983173;28;19920;-94
2023/03/25 00:48:26;;;;;;;;;;;10.60;99.90;;;;;;4999484;28;19971;-93
2023/03/25 00:50:51;;;;;;;;;;;10.60;99.90;;;;;;4983627;28;19952;-93
2023/03/25 00:53:17;;;;;;;;;;;10.70;99.90;;;;;;5010917;28;19948;-96
2023/03/25 00:55:46;;;;;;;;;;;10.60;99.90;;;;;;5016256;28;19910;-95
2023/03/25 00:58:12;;;;;;;;;;;10.60;99.90;;;;;;5014903;28;19917;-96
2023/03/25 01:00:37;;;;;;;;;;;10.60;99.90;;;;;;5020250;28;19926;-96
2023/03/25 01:03:03;;;;;;;;;;;10.60;99.90;;;;;;5021050;28;19913;-96
2023/03/25 01:05:29;;;;;;;;;;;10.50;99.90;;;;;;5018282;28;19920;-96
2023/03/25 01:07:55;;;;;;;;;;;10.60;99.90;;;;;;5015228;28;19909;-96
2023/03/25 01:10:21;;;;;;;;;;;10.60;99.90;;;;;;5001379;28;19932;-88
2023/03/25 01:12:47;;;;;;;;;;;10.60;99.90;;;;;;4997820;28;19909;-88
2023/03/25 01:15:12;;;;;;;;;;;10.60;99.90;;;;;;4997976;28;19967;-88
2023/03/25 01:17:38;;;;;;;;;;;10.60;99.90;;;;;;4999898;28;19909;-88
2023/03/25 01:20:08;;;;;;;;;;;10.60;99.90;;;;;;5000602;28;19963;-88
2023/03/25 01:22:34;;;;;;;;;;;10.60;99.90;;;;;;5001237;28;19921;-88
2023/03/25 01:25:00;;;;;;;;;;;10.60;99.90;;;;;;5017108;28;19910;-87
2023/03/25 01:27:29;;;;;;;;;;;10.60;99.90;;;;;;5015964;28;19913;-96
2023/03/25 01:30:04;;;;;;;;;;;10.60;99.90;;;;;;5014236;28;19914;-96
2023/03/25 01:32:29;;;;;;;;;;;10.60;99.90;;;;;;5017870;28;19909;-93
2023/03/25 01:34:55;;;;;;;;;;;10.60;99.90;;;;;;5018448;28;20281;-93
2023/03/25 01:37:21;;;;;;;;;;;10.60;99.90;;;;;;5001438;28;19920;-92
2023/03/25 01:39:47;;;;;;;;;;;10.60;99.90;;;;;;5018419;28;19976;-94
2023/03/25 01:42:12;;;;;;;;;;;10.50;99.90;;;;;;5003533;28;19967;-96
2023/03/25 01:44:38;;;;;;;;;;;10.60;99.90;;;;;;5028412;28;20277;-87
2023/03/25 01:47:05;;;;;;;;;;;10.60;99.90;;;;;;5016648;28;19915;-88
2023/03/25 01:49:37;;;;;;;;;;;10.60;99.90;;;;;;5016811;28;19963;-88
2023/03/25 01:52:05;;;;;;;;;;;10.60;99.90;;;;;;5016563;28;19909;-88
2023/03/25 01:54:31;;;;;;;;;;;10.60;99.90;;;;;;5016861;28;19909;-88
2023/03/25 01:56:57;;;;;;;;;;;10.60;99.90;;;;;;5000339;28;19913;-88
2023/03/25 01:59:25;;;;;;;;;;;10.60;99.90;;;;;;5021026;28;19916;-96
2023/03/25 02:01:52;;;;;;;;;;;10.60;99.90;;;;;;5023998;28;20255;-95
2023/03/25 02:04:26;;;;;;;;;;;10.60;99.90;;;;;;5026715;28;19913;-96
2023/03/25 02:06:54;;;;;;;;;;;10.60;99.90;;;;;;5028906;28;19934;-95
2023/03/25 02:09:21;;;;;;;;;;;10.60;99.90;;;;;;5023092;28;19910;-96
2023/03/25 02:11:47;;;;;;;;;;;10.60;99.90;;;;;;5031605;28;19909;-96
2023/03/25 02:14:25;;;;;;;;;;;10.60;99.90;;;;;;5029663;28;19920;-96
2023/03/25 02:17:02;;;;;;;;;;;10.70;99.90;;;;;;5020150;28;20261;-91
2023/03/25 02:19:46;;;;;;;;;;;10.60;99.90;;;;;;5016764;28;19928;-91
2023/03/25 02:22:36;;;;;;;;;;;10.60;99.90;;;;;;5018111;28;20346;-90
2023/03/25 02:25:18;;;;;;;;;;;10.50;99.90;;;;;;5016937;28;19909;-90
2023/03/25 02:27:55;;;;;;;;;;;10.50;99.90;;;;;;5016967;28;19909;-91
2023/03/25 02:30:39;;;;;;;;;;;10.50;99.90;;;;;;5017136;28;19909;-90
2023/03/25 02:33:29;;;;;;;;;;;10.40;99.90;;;;;;5023431;28;19968;-96
2023/03/25 02:36:14;;;;;;;;;;;10.40;99.90;;;;;;5036234;28;19913;-96
2023/03/25 02:38:51;;;;;;;;;;;10.40;99.90;;;;;;5030657;28;19916;-96
2023/03/25 02:41:32;;;;;;;;;;;10.30;99.90;;;;;;5038518;28;19944;-96
2023/03/25 02:44:17;;;;;;;;;;;10.20;99.90;;;;;;5057864;28;19981;-96
2023/03/25 02:46:47;;;;;;;;;;;10.30;99.90;;;;;;5080776;22;19975;-86
2023/03/25 02:49:17;;;;;;;;;;;10.20;99.90;;;;;;5077340;28;19908;-91
2023/03/25 02:51:48;;;;;;;;;;;10.20;99.90;;;;;;5079191;28;19909;-89
2023/03/25 02:54:14;;;;;;;;;;;10.20;99.90;;;;;;5080549;28;19944;-88
2023/03/25 02:56:40;;;;;;;;;;;10.10;99.90;;;;;;5099729;28;19932;-87
2023/03/25 02:59:07;;;;;;;;;;;10.10;99.90;;;;;;5061793;28;20015;-88
2023/03/25 03:01:34;;;;;;;;;;;10.10;99.90;;;;;;5076778;28;19923;-87
2023/03/25 03:04:00;;;;;;;;;;;10.10;99.90;;;;;;5078304;28;19916;-88
2023/03/25 03:06:26;;;;;;;;;;;10.10;99.90;;;;;;5076913;28;19909;-88
2023/03/25 03:09:17;;;;;;;;;;;10.10;99.90;;;;;;5077139;28;19995;-90
2023/03/25 03:11:55;;;;;;;;;;;10.00;99.90;;;;;;5076968;28;19915;-92
2023/03/25 03:14:29;;;;;;;;;;;10.00;99.90;;;;;;5076797;28;20314;-89
2023/03/25 03:17:18;;;;;;;;;;;10.00;99.90;;;;;;5077356;28;19962;-92
2023/03/25 03:19:45;;;;;;;;;;;10.00;99.90;;;;;;5077028;28;19908;-87
2023/03/25 03:22:32;;;;;;;;;;;10.00;99.90;;;;;;5077323;28;20346;-89
2023/03/25 03:25:08;;;;;;;;;;;10.00;99.90;;;;;;5077302;28;19966;-92
2023/03/25 03:27:36;;;;;;;;;;;9.90;99.90;;;;;;5078372;28;20362;-90
2023/03/25 03:30:03;;;;;;;;;;;9.90;99.90;;;;;;5076642;28;19909;-87
2023/03/25 03:32:40;;;;;;;;;;;9.90;99.90;;;;;;5076662;28;19916;-86
2023/03/25 03:35:13;;;;;;;;;;;9.80;99.90;;;;;;5078394;28;20411;-86
2023/03/25 03:37:41;;;;;;;;;;;9.80;99.90;;;;;;5076663;28;20421;-89
2023/03/25 03:40:11;;;;;;;;;;;9.80;99.90;;;;;;5076687;28;19914;-89
2023/03/25 03:42:40;;;;;;;;;;;9.80;99.90;;;;;;5076895;28;19917;-91
2023/03/25 03:45:07;;;;;;;;;;;9.80;99.90;;;;;;5076584;28;19915;-88
2023/03/25 03:47:37;;;;;;;;;;;9.80;99.90;;;;;;5076066;28;19975;-90
2023/03/25 03:50:08;;;;;;;;;;;9.80;99.90;;;;;;5075931;28;19913;-87
2023/03/25 03:52:36;;;;;;;;;;;9.80;99.90;;;;;;5076288;28;19968;-91
2023/03/25 03:55:09;;;;;;;;;;;9.80;99.90;;;;;;5076558;28;19909;-92
2023/03/25 03:57:37;;;;;;;;;;;9.80;99.90;;;;;;5075666;28;19931;-88
2023/03/25 04:00:10;;;;;;;;;;;9.70;99.90;;;;;;5076026;28;19951;-88
2023/03/25 04:02:49;;;;;;;;;;;9.70;99.90;;;;;;5075493;28;20058;-91
2023/03/25 04:05:16;;;;;;;;;;;9.70;99.90;;;;;;5076094;28;20329;-88
2023/03/25 04:08:10;;;;;;;;;;;9.70;99.90;;;;;;5077551;28;19915;-90
2023/03/25 04:10:44;;;;;;;;;;;9.70;99.90;;;;;;5064541;28;20277;-91
2023/03/25 04:13:12;;;;;;;;;;;9.70;99.90;;;;;;5076040;28;19955;-89
2023/03/25 04:15:38;;;;;;;;;;;9.70;99.90;;;;;;5076175;28;19901;-90
2023/03/25 04:18:04;;;;;;;;;;;9.80;99.90;;;;;;5059342;28;19982;-89
2023/03/25 04:20:33;;;;;;;;;;;9.80;99.90;;;;;;5076058;28;20014;-88
2023/03/25 04:22:59;;;;;;;;;;;9.80;99.90;;;;;;5077000;28;19916;-90
2023/03/25 04:25:25;;;;;;;;;;;9.80;99.90;;;;;;5077067;28;19930;-90
2023/03/25 04:27:52;;;;;;;;;;;9.70;99.90;;;;;;5075824;28;20007;-89
2023/03/25 04:30:18;;;;;;;;;;;9.70;99.90;;;;;;5077717;28;19944;-89
2023/03/25 04:32:47;;;;;;;;;;;9.70;99.90;;;;;;5098737;28;19900;-91
2023/03/25 04:35:20;;;;;;;;;;;9.70;99.90;;;;;;5098855;28;19896;-89
2023/03/25 04:37:47;;;;;;;;;;;9.70;99.90;;;;;;5098960;28;19913;-91
2023/03/25 04:40:17;;;;;;;;;;;9.70;99.90;;;;;;5098645;28;19897;-91
2023/03/25 04:42:46;;;;;;;;;;;9.70;99.90;;;;;;5091312;28;20269;-89
2023/03/25 04:45:15;;;;;;;;;;;9.70;99.90;;;;;;5081918;28;19909;-89
2023/03/25 04:47:43;;;;;;;;;;;9.70;99.90;;;;;;5058771;28;19931;-89
2023/03/25 04:50:15;;;;;;;;;;;9.70;99.90;;;;;;5075548;28;20002;-91
2023/03/25 04:52:40;;;;;;;;;;;9.70;99.90;;;;;;5076151;28;19912;-89
2023/03/25 04:55:07;;;;;;;;;;;9.70;99.90;;;;;;5058898;28;19920;-91
2023/03/25 04:57:33;;;;;;;;;;;9.70;99.90;;;;;;5075740;28;19896;-90
2023/03/25 04:59:58;;;;;;;;;;;9.60;99.90;;;;;;5058874;28;19939;-88
2023/03/25 05:02:24;;;;;;;;;;;9.70;99.90;;;;;;5077567;28;19967;-89
2023/03/25 05:04:50;;;;;;;;;;;9.70;99.90;;;;;;5096464;28;19919;-87
2023/03/25 05:07:17;;;;;;;;;;;9.70;99.90;;;;;;5061151;28;20019;-92
2023/03/25 05:09:43;;;;;;;;;;;9.70;99.90;;;;;;5057800;28;20272;-91
2023/03/25 05:12:10;;;;;;;;;;;9.70;99.90;;;;;;5074612;28;20292;-88
2023/03/25 05:14:35;;;;;;;;;;;9.70;99.90;;;;;;5076696;28;19931;-89
2023/03/25 05:17:01;;;;;;;;;;;9.70;99.90;;;;;;5058055;28;19917;-90
2023/03/25 05:19:27;;;;;;;;;;;9.70;99.90;;;;;;5058619;28;19913;-87
2023/03/25 05:21:55;;;;;;;;;;;9.70;99.90;;;;;;5057594;28;20019;-88
2023/03/25 05:24:20;;;;;;;;;;;9.70;99.90;;;;;;5074448;28;20015;-89
2023/03/25 05:26:46;;;;;;;;;;;9.80;99.90;;;;;;5074762;28;20356;-89
2023/03/25 05:29:12;;;;;;;;;;;9.80;99.90;;;;;;5058682;28;19913;-88
2023/03/25 05:31:39;;;;;;;;;;;9.80;99.90;;;;;;5074631;28;19985;-88
2023/03/25 05:34:08;;;;;;;;;;;9.80;99.90;;;;;;5075546;28;20090;-90
2023/03/25 05:36:34;;;;;;;;;;;9.80;99.90;;;;;;5074493;28;19958;-88
2023/03/25 05:38:59;;;;;;;;;;;9.80;99.90;;;;;;5074581;28;19999;-88
2023/03/25 05:41:31;;;;;;;;;;;9.80;99.90;;;;;;5074588;28;19993;-88
2023/03/25 05:43:57;;;;;;;;;;;9.80;99.90;;;;;;5074613;28;19995;-88
2023/03/25 05:46:23;;;;;;;;;;;9.80;99.90;;;;;;5075658;28;20375;-89
2023/03/25 05:48:48;;;;;;;;;;;9.80;99.90;;;;;;5057392;28;19912;-88
2023/03/25 05:51:15;;;;;;;;;;;9.90;99.90;;;;;;5058037;28;19923;-89
2023/03/25 05:53:44;;;;;;;;;;;9.90;99.90;;;;;;5074944;28;19909;-89
2023/03/25 05:56:10;;;;;;;;;;;9.80;99.90;;;;;;5074354;28;19915;-88
2023/03/25 05:58:36;;;;;;;;;;;9.80;99.90;;;;;;5074698;28;20378;-87
2023/03/25 06:01:03;;;;;;;;;;;9.70;99.90;;;;;;5074371;28;19963;-92
2023/03/25 06:03:28;;;;;;;;;;;9.80;99.90;;;;;;5074218;28;19913;-87
2023/03/25 06:05:54;;;;;;;;;;;9.70;99.90;;;;;;5057255;28;19919;-90
2023/03/25 06:08:24;;;;;;;;;;;9.70;99.90;;;;;;5057755;28;19919;-90
2023/03/25 06:10:59;;;;;;;;;;;9.80;99.90;;;;;;5075968;28;20007;-90
2023/03/25 06:13:25;;;;;;;;;;;9.80;99.90;;;;;;5076787;28;19919;-88
2023/03/25 06:15:55;;;;;;;;;;;9.80;99.90;;;;;;5079223;28;19948;-90
2023/03/25 06:18:23;;;;;;;;;;;9.80;99.90;;;;;;5062030;28;19912;-86
2023/03/25 06:20:52;;;;;;;;;;;9.80;99.90;;;;;;5077945;28;19939;-93
2023/03/25 06:23:21;;;;;;;;;;;9.70;99.90;;;;;;5078111;28;19913;-90
2023/03/25 06:25:48;;;;;;;;;;;9.80;99.90;;;;;;5078057;28;19908;-91
2023/03/25 06:28:17;;;;;;;;;;;9.80;99.90;;;;;;5078305;28;19990;-88
2023/03/25 06:30:42;;;;;;;;;;;9.70;99.90;;;;;;5077985;28;19935;-87
2023/03/25 06:33:09;;;;;;;;;;;9.80;99.90;;;;;;5078057;28;19912;-89
2023/03/25 06:35:35;;;;;;;;;;;9.70;99.90;;;;;;5061807;28;19912;-89
2023/03/25 06:38:00;;;;;;;;;;;9.80;99.90;;;;;;5078850;28;20374;-88
2023/03/25 06:40:26;;;;;;;;;;;9.80;99.90;;;;;;5077680;28;19915;-87
2023/03/25 06:42:51;;;;;;;;;;;9.80;99.90;;;;;;5060872;28;20326;-91
2023/03/25 06:45:17;;;;;;;;;;;9.80;99.90;;;;;;5079036;28;19912;-89
2023/03/25 06:47:43;;;;;;;;;;;9.80;99.90;;;;;;5060890;28;19967;-88
2023/03/25 06:50:08;;;;;;;;;;;9.80;99.90;;;;;;5079374;28;20404;-90
2023/03/25 06:52:34;;;;;;;;;;;9.90;99.90;;;;;;5061261;28;19912;-88
2023/03/25 06:55:00;;;;;;;;;;;9.90;99.90;;;;;;5060911;28;19920;-88
2023/03/25 06:57:25;;;;;;;;;;;9.90;99.90;;;;;;5077708;28;20422;-90
2023/03/25 06:59:51;;;;;;;;;;;9.90;99.90;;;;;;5061082;28;19916;-87
2023/03/25 07:02:16;;;;;;;;;;;9.90;99.90;;;;;;5060458;28;19974;-89
2023/03/25 07:04:42;;;;;;;;;;;9.90;99.90;;;;;;5061837;28;20372;-88
2023/03/25 07:07:08;;;;;;;;;;;10.00;99.90;;;;;;5077461;28;20352;-89
2023/03/25 07:09:34;;;;;;;;;;;9.90;99.90;;;;;;5079564;28;20352;-88
2023/03/25 07:11:59;;;;;;;;;;;10.00;99.90;;;;;;5073291;28;19912;-91
2023/03/25 07:14:25;;;;;;;;;;;9.90;99.90;;;;;;5089492;28;19935;-91
2023/03/25 07:16:50;;;;;;;;;;;10.00;99.90;;;;;;5061168;28;20343;-89
2023/03/25 07:19:16;;;;;;;;;;;10.00;99.90;;;;;;5061921;28;19967;-89
2023/03/25 07:21:41;;;;;;;;;;;10.00;99.90;;;;;;5060713;28;19975;-88
2023/03/25 07:24:07;;;;;;;;;;;10.00;99.90;;;;;;5060267;28;20459;-90
2023/03/25 07:26:33;;;;;;;;;;;10.00;99.90;;;;;;5077803;28;19916;-86
2023/03/25 07:28:58;;;;;;;;;;;10.00;99.90;;;;;;5077171;28;20057;-87
2023/03/25 07:31:24;;;;;;;;;;;10.00;99.90;;;;;;5060433;28;19913;-89
2023/03/25 07:33:50;;;;;;;;;;;10.00;99.90;;;;;;5060334;28;19913;-88
2023/03/25 07:36:16;;;;;;;;;;;10.00;99.90;;;;;;5060142;28;19917;-89
2023/03/25 07:38:42;;;;;;;;;;;10.00;99.90;;;;;;5078205;28;20011;-88
2023/03/25 07:41:09;;;;;;;;;;;10.00;99.90;;;;;;5077126;28;19975;-88
2023/03/25 07:43:35;;;;;;;;;;;10.00;99.90;;;;;;5077141;28;19908;-88
2023/03/25 07:46:00;;;;;;;;;;;10.00;99.90;;;;;;5061174;28;19920;-89
2023/03/25 07:48:26;;;;;;;;;;;10.00;99.90;;;;;;5061177;28;19919;-88
2023/03/25 07:50:52;;;;;;;;;;;10.00;99.90;;;;;;5077217;28;19909;-87
2023/03/25 07:53:18;;;;;;;;;;;10.00;99.90;;;;;;5059913;28;20296;-88
2023/03/25 07:55:44;;;;;;;;;;;10.00;99.90;;;;;;5060318;28;19978;-87
2023/03/25 07:58:10;;;;;;;;;;;10.00;99.90;;;;;;5080288;28;19909;-89
2023/03/25 08:00:35;;;;;;;;;;;10.00;99.90;;;;;;5076155;28;19939;-89
2023/03/25 08:03:02;;;;;;;;;;;10.00;99.90;;;;;;5098268;28;19932;-93
2023/03/25 08:05:28;;;;;;;;;;;10.00;99.90;;;;;;5098658;28;19912;-88
2023/03/25 08:07:58;;;;;;;;;;;10.10;99.90;;;;;;5099705;28;19913;-86
2023/03/25 08:10:24;;;;;;;;;;;9.90;99.90;;;;;;5097134;28;19897;-91
2023/03/25 08:12:51;;;;;;;;;;;9.90;99.90;;;;;;5091496;28;19974;-89
2023/03/25 08:15:17;;;;;;;;;;;9.90;99.90;;;;;;5087181;28;19936;-87
2023/03/25 08:17:42;;;;;;;;;;;9.90;99.90;;;;;;5081824;28;19975;-89
2023/03/25 08:20:08;;;;;;;;;;;9.90;99.90;;;;;;5062029;28;19916;-88
2023/03/25 08:22:35;;;;;;;;;;;9.80;99.90;;;;;;5060610;28;20254;-87
2023/03/25 08:25:00;;;;;;;;;;;9.90;99.90;;;;;;5077043;28;19920;-88
2023/03/25 08:27:26;;;;;;;;;;;9.90;99.90;;;;;;5059511;28;19912;-88
2023/03/25 08:29:58;;;;;;;;;;;10.00;99.90;;;;;;5060126;28;20388;-86
2023/03/25 08:32:25;;;;;;;;;;;10.00;99.90;;;;;;5059330;28;20368;-86
2023/03/25 08:34:50;;;;;;;;;;;10.00;99.90;;;;;;5075484;28;19909;-86
2023/03/25 08:37:16;;;;;;;;;;;10.00;99.90;;;;;;5078113;28;19908;-88
2023/03/25 08:39:43;;;;;;;;;;;10.10;99.90;;;;;;5076427;28;19917;-89
2023/03/25 08:45:48;;;;;;;;;;;10.10;99.90;;;;;;5077033;28;19916;-89
2023/03/25 08:51:17;;;;;;;;;;;10.20;99.90;;;;;;5058350;28;19979;-88
2023/03/25 08:53:43;;;;;;;;;;;10.20;99.90;;;;;;5023012;28;19940;-88
2023/03/25 08:56:09;;;;;;;;;;;10.20;99.90;;;;;;5023156;28;19913;-89
2023/03/25 08:58:34;;;;;;;;;;;10.10;99.90;;;;;;5042905;28;20369;-88
2023/03/25 09:01:01;;;;;;;;;;;10.10;99.90;;;;;;5024693;28;19928;-90
2023/03/25 09:09:33;;;;;;;;;;;10.10;99.90;;;;;;5036253;28;19992;-88
2023/03/25 09:11:58;;;;;;;;;;;10.10;99.90;;;;;;5002514;28;19968;-89
2023/03/25 09:14:26;;;;;;;;;;;10.10;99.90;;;;;;5002874;28;19917;-92
2023/03/25 09:16:51;;;;;;;;;;;10.10;99.90;;;;;;5023985;28;19981;-88
2023/03/25 09:19:17;;;;;;;;;;;10.20;99.90;;;;;;5033775;28;19918;-91
2023/03/25 09:21:49;;;;;;;;;;;10.20;99.90;;;;;;5032033;28;20401;-90
2023/03/25 09:24:14;;;;;;;;;;;10.30;99.90;;;;;;5002449;28;19913;-88
2023/03/25 09:26:40;;;;;;;;;;;10.30;99.90;;;;;;5018779;28;20063;-86
2023/03/25 09:29:05;;;;;;;;;;;10.40;99.90;;;;;;5018693;28;20382;-88
2023/03/25 09:31:32;;;;;;;;;;;10.40;99.90;;;;;;5018712;28;19920;-86
2023/03/25 09:33:57;;;;;;;;;;;10.40;99.90;;;;;;5036507;28;19960;-87
2023/03/25 09:36:23;;;;;;;;;;;10.50;99.90;;;;;;5019864;28;19913;-88
2023/03/25 09:38:52;;;;;;;;;;;10.50;99.90;;;;;;5020690;28;20276;-92
2023/03/25 09:41:37;;;;;;;;;;;10.60;99.90;;;;;;5019857;28;19917;-91
2023/03/25 09:44:19;;;;;;;;;;;10.70;99.90;;;;;;5006762;28;19909;-87
2023/03/25 09:46:44;;;;;;;;;;;10.70;99.90;;;;;;5037661;28;19956;-88
2023/03/25 09:49:13;;;;;;;;;;;10.70;99.90;;;;;;5061739;28;19920;-87
2023/03/25 09:51:40;;;;;;;;;;;10.80;99.90;;;;;;5060800;28;20070;-87
2023/03/25 09:54:24;;;;;;;;;;;10.80;99.90;;;;;;5062072;28;19931;-88
2023/03/25 09:56:50;;;;;;;;;;;10.80;99.90;;;;;;5062245;28;19936;-88
2023/03/25 09:59:22;;;;;;;;;;;10.80;99.90;;;;;;5062403;28;19961;-89
2023/03/25 10:02:06;;;;;;;;;;;10.80;99.90;;;;;;5071059;28;20425;-89
2023/03/25 10:04:39;;;;;;;;;;;10.80;99.90;;;;;;5066601;28;20368;-86
2023/03/25 10:07:09;;;;;;;;;;;10.80;99.90;;;;;;5063425;28;19920;-89
2023/03/25 10:09:41;;;;;;;;;;;10.90;99.90;;;;;;5062010;28;19915;-91
2023/03/25 10:12:17;;;;;;;;;;;11.00;99.90;;;;;;5065230;28;19908;-87
2023/03/25 10:15:03;;;;;;;;;;;11.10;99.90;;;;;;5098223;28;19908;-90
2023/03/25 10:17:37;;;;;;;;;;;11.20;99.90;;;;;;5077338;28;20451;-87
2023/03/25 10:20:26;;;;;;;;;;;11.30;99.90;;;;;;5078375;28;19969;-92
2023/03/25 10:22:52;;;;;;;;;;;11.30;99.90;;;;;;5083182;28;19973;-95
2023/03/25 10:25:21;;;;;;;;;;;11.30;99.90;;;;;;5064092;28;19912;-92
2023/03/25 10:27:50;;;;;;;;;;;11.30;99.90;;;;;;5059753;28;19939;-91
2023/03/25 10:30:19;;;;;;;;;;;11.30;99.90;;;;;;5059363;28;19908;-90
2023/03/25 10:33:00;;;;;;;;;;;11.30;99.90;;;;;;5076827;28;19909;-91
2023/03/25 10:35:28;;;;;;;;;;;11.30;99.90;;;;;;5059051;28;19916;-89
2023/03/25 10:37:57;;;;;;;;;;;11.30;99.90;;;;;;5059127;28;19944;-91
2023/03/25 10:40:23;;;;;;;;;;;11.30;99.90;;;;;;5058186;28;19908;-85
2023/03/25 10:42:56;;;;;;;;;;;11.30;99.90;;;;;;5059421;28;19928;-88
2023/03/25 10:45:22;;;;;;;;;;;11.30;99.90;;;;;;5078281;28;19944;-88
2023/03/25 10:47:48;;;;;;;;;;;11.30;99.90;;;;;;5076611;28;19926;-87
2023/03/25 10:50:18;;;;;;;;;;;11.30;99.90;;;;;;5096265;28;19999;-88
2023/03/25 10:52:44;;;;;;;;;;;11.30;99.90;;;;;;5076989;28;19915;-87
2023/03/25 10:55:29;;;;;;;;;;;11.30;99.90;;;;;;5077308;28;19915;-90
2023/03/25 10:57:57;;;;;;;;;;;11.30;99.90;;;;;;5077687;28;19908;-94
2023/03/25 11:00:28;;;;;;;;;;;11.30;99.90;;;;;;5064128;28;19912;-95
2023/03/25 11:06:08;;;;;;;;;;;11.30;99.90;;;;;;5077482;28;19932;-91
2023/03/25 11:08:34;;;;;;;;;;;11.20;99.90;;;;;;5061713;28;19927;-88
2023/03/25 11:11:00;;;;;;;;;;;11.10;99.90;;;;;;5061129;28;19991;-87
2023/03/25 11:13:29;;;;;;;;;;;11.10;99.90;;;;;;5061087;28;19936;-91
2023/03/25 11:16:00;;;;;;;;;;;11.20;99.90;;;;;;5061300;28;19999;-88
2023/03/25 11:18:27;;;;;;;;;;;11.10;99.90;;;;;;5062033;28;20344;-87
2023/03/25 11:24:04;;;;;;;;;;;11.10;99.90;;;;;;5080537;28;19962;-91
2023/03/25 11:26:40;;;;;;;;;;;11.10;99.90;;;;;;5062430;28;20275;-87
2023/03/25 11:29:08;;;;;;;;;;;11.10;99.90;;;;;;5093584;28;19943;-90
2023/03/25 11:31:36;;;;;;;;;;;11.10;99.90;;;;;;5083584;28;19900;-89
2023/03/25 11:34:04;;;;;;;;;;;11.20;99.90;;;;;;5083758;28;19904;-89
2023/03/25 11:36:34;;;;;;;;;;;11.30;99.90;;;;;;5083253;28;19904;-85
2023/03/25 11:39:00;;;;;;;;;;;11.30;99.90;;;;;;5083760;28;19972;-87
2023/03/25 11:41:29;;;;;;;;;;;11.40;99.90;;;;;;5082738;28;19905;-87
2023/03/25 11:43:57;;;;;;;;;;;11.50;99.90;;;;;;5081499;28;19909;-93
2023/03/25 11:46:23;;;;;;;;;;;11.60;99.90;;;;;;5075238;28;19912;-91
2023/03/25 11:48:51;;;;;;;;;;;11.60;99.90;;;;;;5045978;28;19936;-93
2023/03/25 11:51:19;;;;;;;;;;;11.60;99.90;;;;;;5062738;28;20360;-89
2023/03/25 11:53:46;;;;;;;;;;;11.70;99.90;;;;;;5062564;28;19966;-89
2023/03/25 11:56:15;;;;;;;;;;;11.70;99.90;;;;;;5080057;28;19909;-90
2023/03/25 11:58:42;;;;;;;;;;;11.70;99.90;;;;;;5062387;28;19909;-88
2023/03/25 12:01:43;;;;;;;;;;;11.70;99.90;;;;;;5062607;28;19922;-91
2023/03/25 12:04:17;;;;;;;;;;;11.70;99.90;;;;;;5036944;28;19912;-88
2023/03/25 12:06:56;;;;;;;;;;;11.80;99.90;;;;;;5060248;28;19909;-87
2023/03/25 12:09:22;;;;;;;;;;;11.80;99.90;;;;;;5062484;28;19912;-87
2023/03/25 12:12:03;;;;;;;;;;;11.90;99.90;;;;;;5074506;28;19913;-90
2023/03/25 12:14:36;;;;;;;;;;;12.00;99.90;;;;;;5080275;28;19952;-91
2023/03/25 12:17:04;;;;;;;;;;;12.00;99.90;;;;;;5079774;28;20308;-85
2023/03/25 12:19:44;;;;;;;;;;;12.10;99.90;;;;;;5069102;28;19916;-87
2023/03/25 12:22:14;;;;;;;;;;;12.10;99.90;;;;;;5077734;28;19916;-87
2023/03/25 12:24:52;;;;;;;;;;;12.20;99.90;;;;;;5059741;28;19908;-87
2023/03/25 12:27:33;;;;;;;;;;;12.20;99.90;;;;;;5060878;28;19935;-89
2023/03/25 12:30:18;;;;;;;;;;;12.20;99.90;;;;;;5060016;28;20008;-85
2023/03/25 12:33:01;;;;;;;;;;;12.30;99.90;;;;;;5059827;28;20431;-90
2023/03/25 12:35:32;;;;;;;;;;;12.40;99.90;;;;;;5061072;28;20311;-91
2023/03/25 12:37:59;;;;;;;;;;;12.40;99.90;;;;;;5060739;28;19935;-91
2023/03/25 12:40:32;;;;;;;;;;;12.40;99.90;;;;;;5078121;28;20368;-89
2023/03/25 12:43:14;;;;;;;;;;;12.50;99.90;;;;;;5062880;28;20030;-88
2023/03/25 12:45:40;;;;;;;;;;;12.60;99.90;;;;;;5059873;28;19958;-89
2023/03/25 12:48:09;;;;;;;;;;;12.70;99.90;;;;;;5057544;28;19924;-87
2023/03/25 12:50:53;;;;;;;;;;;12.90;99.90;;;;;;5069048;28;19945;-91
2023/03/25 12:53:22;;;;;;;;;;;13.00;99.90;;;;;;5074588;28;19912;-93
2023/03/25 12:56:04;;;;;;;;;;;13.10;99.90;;;;;;5072386;28;20007;-89
2023/03/25 12:58:44;;;;;;;;;;;13.10;99.90;;;;;;5066725;28;19908;-87
2023/03/25 13:01:29;;;;;;;;;;;13.00;99.90;;;;;;5095829;28;19963;-85
2023/03/25 13:04:13;;;;;;;;;;;12.90;99.90;;;;;;5078747;28;19915;-88
2023/03/25 13:06:50;;;;;;;;;;;12.80;99.90;;;;;;5078269;28;20371;-87
2023/03/25 13:09:16;;;;;;;;;;;12.60;99.90;;;;;;5078654;28;19908;-87
2023/03/25 13:11:41;;;;;;;;;;;12.40;99.90;;;;;;5079069;28;20401;-87
2023/03/25 13:14:11;;;;;;;;;;;12.20;99.90;;;;;;5096954;28;19908;-88
2023/03/25 13:16:38;;;;;;;;;;;12.00;99.90;;;;;;5078899;28;20249;-86
2023/03/25 13:19:24;;;;;;;;;;;11.90;99.90;;;;;;5078865;28;19908;-86
2023/03/25 13:22:09;;;;;;;;;;;11.80;99.90;;;;;;5062702;28;19961;-86
2023/03/25 13:25:13;;;;;;;;;;;11.80;99.90;;;;;;5076382;28;19960;-89
2023/03/25 13:27:40;;;;;;;;;;;11.80;99.90;;;;;;5005842;28;20003;-89
2023/03/25 13:30:12;;;;;;;;;;;11.90;99.90;;;;;;5059509;28;19915;-88
2023/03/25 13:32:49;;;;;;;;;;;12.00;99.90;;;;;;5059035;28;19908;-86
2023/03/25 13:35:16;;;;;;;;;;;12.00;99.90;;;;;;5059070;28;19908;-86
2023/03/25 13:37:45;;;;;;;;;;;12.10;99.90;;;;;;5062515;28;19908;-90
2023/03/25 13:40:11;;;;;;;;;;;12.10;99.90;;;;;;5058920;28;19909;-91
2023/03/25 13:42:42;;;;;;;;;;;12.20;99.90;;;;;;5057499;28;19928;-89
2023/03/25 13:45:15;;;;;;;;;;;12.20;99.90;;;;;;5075123;28;20429;-88
2023/03/25 13:47:46;;;;;;;;;;;12.30;99.90;;;;;;5057696;28;19920;-87
2023/03/25 13:50:26;;;;;;;;;;;12.30;99.90;;;;;;5059540;28;19912;-87
2023/03/25 13:53:11;;;;;;;;;;;12.30;99.90;;;;;;5057279;28;20348;-87
2023/03/25 13:55:39;;;;;;;;;;;12.40;99.90;;;;;;5076133;28;20007;-89
2023/03/25 13:58:25;;;;;;;;;;;12.40;99.90;;;;;;5057917;28;19909;-88
2023/03/25 14:00:53;;;;;;;;;;;12.40;99.90;;;;;;5057372;28;19952;-88
2023/03/25 14:03:25;;;;;;;;;;;12.50;99.90;;;;;;5076219;28;19917;-89
2023/03/25 14:06:09;;;;;;;;;;;12.50;99.90;;;;;;5059333;28;19908;-89
2023/03/25 14:09:04;;;;;;;;;;;12.50;99.90;;;;;;5078286;28;20011;-88
2023/03/25 14:11:38;;;;;;;;;;;12.50;99.90;;;;;;5058914;28;19982;-91
2023/03/25 14:14:10;;;;;;;;;;;12.60;99.90;;;;;;5057907;28;19920;-88
2023/03/25 14:16:50;;;;;;;;;;;12.60;99.90;;;;;;5058937;28;20364;-87
2023/03/25 14:19:19;;;;;;;;;;;12.60;99.90;;;;;;5056988;28;19909;-88
2023/03/25 14:21:49;;;;;;;;;;;12.60;99.90;;;;;;5057265;28;19962;-91
2023/03/25 14:24:17;;;;;;;;;;;12.60;99.90;;;;;;5057302;28;19956;-89
2023/03/25 14:26:48;;;;;;;;;;;12.60;99.90;;;;;;5057935;28;19908;-92
2023/03/25 14:29:34;;;;;;;;;;;12.60;99.90;;;;;;5059265;28;19962;-90
2023/03/25 14:32:00;;;;;;;;;;;12.50;99.90;;;;;;5058651;28;19951;-90
2023/03/25 14:34:30;;;;;;;;;;;12.50;99.90;;;;;;5077558;28;19909;-91
2023/03/25 14:36:56;;;;;;;;;;;12.50;99.90;;;;;;5062789;28;20009;-90
2023/03/25 14:39:28;;;;;;;;;;;12.50;99.90;;;;;;5062237;28;20353;-91
2023/03/25 14:41:54;;;;;;;;;;;12.50;99.90;;;;;;5062123;28;19962;-91
2023/03/25 14:44:20;;;;;;;;;;;12.50;99.90;;;;;;5045037;28;19916;-89
2023/03/25 14:46:46;;;;;;;;;;;12.40;99.90;;;;;;5061678;28;19932;-86
2023/03/25 14:49:30;;;;;;;;;;;12.40;99.90;;;;;;5060971;28;20007;-88
2023/03/25 14:51:58;;;;;;;;;;;12.30;99.90;;;;;;5079934;28;19978;-92
2023/03/25 14:54:29;;;;;;;;;;;12.30;99.90;;;;;;5061888;28;19909;-92
2023/03/25 14:57:06;;;;;;;;;;;12.30;99.90;;;;;;5061914;28;20398;-87